Flight Track Log - Related Links

Times and Time Zones

All times are in EDT time to prevent confusion due to time zone crossing. See the N5348U flight status page for this flight to view local times or setup timezone preferences in your user account.

Time Position Orientation Groundspeed Altitude Reporting Facility
EDT Latitude Longitude Course Direction KTS MPH feet Rate Location/Type
Wed 02:32:04 PM 41.0781 -71.9692 352° North 136 157 1,600  Level Boston Center
Wed 02:32:34 PM 41.0928 -71.9719 352° North 95 109 1,900 593 Climbing Boston Center
Wed 02:33:35 PM 41.1178 -71.9800 346° North 91 105 2,500 590 Climbing Boston Center
Wed 02:34:36 PM 41.1428 -71.9936 338° Northwest 101 116 3,100 541 Climbing Boston Center
Wed 02:35:37 PM 41.1719 -72.0017 348° North 109 125 3,600 446 Climbing Boston Center
Wed 02:36:37 PM 41.2033 -72.0125 345° North 118 136 4,000 209 Climbing Boston Center
Wed 02:37:32 PM 41.2408 -72.0178 354° North 142 163 4,000  Level Boston Center
Wed 02:38:39 PM 41.2806 -72.0397 337° Northwest 136 157 4,000  Level Boston Center
Wed 02:39:34 PM 41.3161 -72.0503 347° North 147 169 4,000 -45 Level Boston Center
Wed 02:40:53 PM 41.3328 -72.1083 291° West 140 161 3,900 -43 Descending Boston Center
Wed 02:41:53 PM 41.3372 -72.1608 276° West 140 161 3,900  Level Boston Center
Wed 02:42:54 PM 41.3664 -72.1911 322° Northwest 130 150 3,900  Level Boston Center
Wed 02:43:55 PM 41.3936 -72.2269 315° West 130 150 3,900  Level Boston Center
Wed 02:44:55 PM 41.4208 -72.2686 311° West 147 169 3,900  Level Boston Center
Wed 02:46:26 PM 41.4625 -72.3236 315° West 137 158 3,900  Level Boston Center
Wed 02:47:27 PM 41.4897 -72.3625 313° West 138 159 3,900 52 Level Boston Center
Wed 02:48:21 PM 41.5125 -72.3931 315° West 130 150 4,000 52 Climbing Boston Center
Wed 02:49:22 PM 41.5375 -72.4289 313° West 130 150 4,000  Level Boston Center
Wed 02:50:23 PM 41.5647 -72.4650 315° West 138 159 4,000  Level Boston Center
Wed 02:51:24 PM 41.5958 -72.5011 319° Northwest 145 167 4,000  Level Boston Center
Wed 02:52:37 PM 41.5917 -72.5539 264° West 144 166 4,000  Level Boston Center
Wed 02:54:46 PM 41.5500 -72.6500 240° Southwest 136 157 4,000  Level New York TRACON
Wed 02:55:46 PM 41.5500 -72.7000 270° West 139 160 4,000 -50 Level New York TRACON
Wed 02:56:46 PM 41.5333 -72.7500 246° West 137 158 3,900 -50 Descending New York TRACON
Wed 02:57:46 PM 41.5167 -72.7833 236° Southwest 139 160 3,900  Level New York TRACON
Wed 02:58:46 PM 41.5000 -72.8333 246° West 141 162 3,900  Level New York TRACON
Wed 02:59:46 PM 41.4833 -72.8833 246° West 142 163 3,900  Level New York TRACON
Wed 03:00:46 PM 41.4667 -72.9333 246° West 144 166 3,900  Level New York TRACON
Wed 03:01:46 PM 41.4500 -72.9833 246° West 141 162 3,900  Level New York TRACON
Wed 03:02:46 PM 41.4333 -73.0333 246° West 137 158 3,900 211 Level New York TRACON
Wed 03:03:40 PM 41.4333 -73.0667 270° West 133 153 4,300 550 Climbing New York TRACON
Wed 03:04:46 PM 41.4167 -73.1167 246° West 105 121 5,000 571 Climbing New York TRACON
Wed 03:05:46 PM 41.4167 -73.1500 270° West 105 121 5,500 450 Climbing New York TRACON
Wed 03:06:46 PM 41.4000 -73.1833 236° Southwest 108 124 5,900 250 Climbing New York TRACON
Wed 03:07:46 PM 41.3833 -73.2333 246° West 128 147 6,000 50 Climbing New York TRACON
Wed 03:08:46 PM 41.3667 -73.2667 236° Southwest 132 152 6,000  Level New York TRACON
Wed 03:09:46 PM 41.3500 -73.3167 246° West 131 151 6,000  Level New York TRACON
Wed 03:10:46 PM 41.3500 -73.3667 270° West 132 152 6,000  Level New York TRACON
Wed 03:11:46 PM 41.3333 -73.4000 236° Southwest 133 153 6,000 -100 Level New York TRACON
Wed 03:12:46 PM 41.3167 -73.4500 246° West 138 159 5,800 -400 Descending New York TRACON
Wed 03:13:46 PM 41.3000 -73.5000 246° West 155 178 5,200 -600 Descending New York TRACON
Wed 03:14:46 PM 41.2833 -73.5667 252° West 159 183 4,600 -600 Descending New York TRACON
Wed 03:15:46 PM 41.2667 -73.6167 246° West 158 182 4,000 -350 Descending New York TRACON
Wed 03:16:46 PM 41.2667 -73.6667 270° West 145 167 3,900 -50 Descending New York TRACON
Wed 03:17:46 PM 41.2667 -73.7167 270° West 138 159 3,900  Level New York TRACON
Wed 03:18:46 PM 41.2500 -73.7667 246° West 140 161 3,900  Level New York TRACON
Wed 03:19:46 PM 41.2500 -73.8167 270° West 139 160 3,900  Level New York TRACON
Wed 03:20:46 PM 41.2500 -73.8667 270° West 139 160 3,900  Level New York TRACON
Wed 03:21:46 PM 41.2500 -73.9167 270° West 140 161 3,900  Level New York TRACON
Wed 03:22:46 PM 41.2333 -73.9833 252° West 141 162 3,900 -190 Level New York TRACON
Wed 03:23:52 PM 41.2333 -74.0333 270° West 151 174 3,500 -450 Descending New York TRACON
Wed 03:24:46 PM 41.2333 -74.1000 270° West 169 194 3,000 -316 Descending New York TRACON
Wed 03:25:46 PM 41.2000 -74.1333 217° Southwest 153 176 2,900 -50 Descending New York TRACON
Wed 03:26:46 PM 41.1833 -74.1833 246° West 138 159 2,900  Level New York TRACON
Wed 03:27:40 PM 41.1500 -74.2000 201° Southwest 148 170 2,900  Level New York TRACON
Wed 03:28:46 PM 41.1167 -74.2000 180° South 149 171 2,900  Level New York TRACON
Wed 03:29:46 PM 41.0667 -74.2167 194° South 146 168 2,900 -150 Level New York TRACON
Wed 03:30:46 PM 41.0333 -74.2333 201° Southwest 153 176 2,600 -350 Descending New York TRACON
Wed 03:31:46 PM 40.9833 -74.2500 194° South 157 181 2,200 -200 Descending New York TRACON
Wed 03:32:46 PM 40.9500 -74.2667 201° Southwest 141 162 2,200 -105 Level New York TRACON
Wed 03:33:40 PM 40.9333 -74.3000 237° Southwest 131 151 2,000 -100 Descending New York TRACON
Wed 03:34:46 PM 40.9000 -74.3167 201° Southwest 122 140 2,000 -143 Level New York TRACON
Wed 03:35:46 PM 40.8667 -74.3500 217° Southwest 101 116 1,700 -400 Descending New York TRACON
Wed 03:36:46 PM 40.8500 -74.3667 217° Southwest 102 117 1,200 -500 Descending New York TRACON
Wed 03:38:00 PM 40.7975 -74.3905 207° Southwest  Level FlightAware Approximate
Wed 03:45:00 PM 40.7833 -74.4000 207° Southwest  Level FlightAware Approximate
Wed 03:46:00 PM 40.7993 -74.4149 207° Southwest  Level Estimated
Wed 03:47:00 PM 40.7993 -74.4149 207° Southwest  Level Estimated
Wed 03:48:00 PM 40.7993 -74.4149 207° Southwest  Level Estimated

Login

Don't have an account? Register now (free) for customized features, flight alerts, and more!